Manoa, Pennsylvania
Current Conditions -  °F | °C
As of 8:54 AM on Friday 19 Dec 2014 (Local Time) from KPHL Reporting Station
Overcast Overcast  
Wind Chill: 31°   Ceiling: 3600
Heat Index: 38°   Visibility: 10mi
Dew Point: 25°   Wind: 10mph
Humidity: 60%   Direction: 290°WNW
Pressure: 30.1"   Gusts: NA
Location:  39.9771°N, 75.3116°W
Report Text: KPHL 191354Z 29009KT 10SM OVC036 03/M04 A3010 RMK AO2 SLP192 T00331039
Loading
Personal Weather Stations






























Interactive Weather Map New forecast layout! Learn more

10-Day Weather Forecast

Advertisements
Track Severe Weather on mobile